Time;durP1;ratioP1;P1;durP2;ratioP2;P2;SDS_P1;SDS_P2;PMS_P1;PMS_P2;Temp;Humidity;BMP_temperature;BMP_pressure;BME280_temperature;BME280_humidity;BME280_pressure;Samples;Min_cycle;Max_cycle;Signal;HPM_P1;HPM_P2
2021/05/28 00:00:17;;;;;;;7.45;6.43;;;11.90;80.50;;;;;;5092561;28;20222;-76
2021/05/28 00:02:43;;;;;;;6.30;5.70;;;11.80;81.00;;;;;;5089777;28;20208;-77
2021/05/28 00:05:12;;;;;;;6.85;6.00;;;11.80;81.20;;;;;;5081444;28;20213;-76
2021/05/28 00:07:39;;;;;;;7.03;5.75;;;11.80;81.40;;;;;;5083930;28;20237;-76
2021/05/28 00:10:07;;;;;;;7.18;5.75;;;11.80;80.00;;;;;;5087937;28;20255;-77
2021/05/28 00:12:33;;;;;;;6.25;5.28;;;11.80;79.60;;;;;;5073252;28;20218;-77
2021/05/28 00:15:00;;;;;;;8.10;6.10;;;11.80;80.00;;;;;;5074137;28;20214;-77
2021/05/28 00:17:26;;;;;;;6.00;5.40;;;11.80;78.90;;;;;;5071968;28;20230;-77
2021/05/28 00:19:52;;;;;;;5.95;5.35;;;11.80;78.90;;;;;;5072475;28;20234;-77
2021/05/28 00:22:21;;;;;;;5.82;5.32;;;11.80;78.60;;;;;;5093628;28;20206;-77
2021/05/28 00:24:47;;;;;;;7.97;6.15;;;11.80;77.90;;;;;;5093520;28;20212;-76
2021/05/28 00:27:14;;;;;;;8.35;5.53;;;11.80;77.90;;;;;;5057682;28;20293;-77
2021/05/28 00:29:40;;;;;;;7.85;5.50;;;11.90;78.00;;;;;;5055579;28;20230;-78
2021/05/28 00:32:07;;;;;;;7.05;6.03;;;11.90;78.00;;;;;;5055597;28;20260;-78
2021/05/28 00:34:34;;;;;;;7.93;5.53;;;11.90;78.00;;;;;;5071059;28;20289;-78
2021/05/28 00:37:00;;;;;;;9.82;5.70;;;11.90;78.00;;;;;;5076322;28;20288;-78
2021/05/28 00:39:27;;;;;;;6.35;5.70;;;11.90;77.50;;;;;;5084171;28;20245;-78
2021/05/28 00:41:54;;;;;;;6.80;5.22;;;11.80;76.90;;;;;;5086739;28;20297;-76
2021/05/28 00:44:22;;;;;;;6.88;5.32;;;11.80;76.60;;;;;;5064002;28;20230;-77
2021/05/28 00:46:48;;;;;;;9.07;5.80;;;11.90;76.30;;;;;;5055075;28;20257;-77
2021/05/28 00:49:15;;;;;;;8.55;6.15;;;11.90;76.50;;;;;;5054536;28;20257;-78
2021/05/28 00:51:41;;;;;;;9.07;5.53;;;12.00;74.80;;;;;;5054803;28;20229;-78
2021/05/28 00:54:09;;;;;;;9.25;6.05;;;11.90;73.70;;;;;;5064452;28;20206;-77
2021/05/28 00:56:38;;;;;;;6.35;5.65;;;11.80;73.60;;;;;;5075298;28;20236;-78
2021/05/28 00:59:05;;;;;;;6.72;5.93;;;11.90;74.10;;;;;;5075172;28;20637;-77
2021/05/28 01:01:32;;;;;;;6.65;5.32;;;11.90;73.70;;;;;;5078212;28;20201;-77
2021/05/28 01:03:58;;;;;;;6.47;5.30;;;11.90;72.10;;;;;;5080598;28;20225;-77
2021/05/28 01:06:26;;;;;;;9.23;5.30;;;11.90;71.50;;;;;;5080256;28;20237;-77
2021/05/28 01:08:52;;;;;;;8.85;5.95;;;11.90;71.00;;;;;;5084676;28;20223;-77
2021/05/28 01:11:19;;;;;;;5.07;4.57;;;11.90;71.40;;;;;;5068043;28;20233;-77
2021/05/28 01:13:46;;;;;;;8.20;5.20;;;11.90;71.00;;;;;;5075851;28;20202;-77
2021/05/28 01:16:13;;;;;;;8.23;5.55;;;12.00;70.50;;;;;;5089229;28;20214;-78
2021/05/28 01:18:40;;;;;;;8.00;5.13;;;11.90;69.30;;;;;;5085548;28;20351;-77
2021/05/28 01:21:06;;;;;;;6.75;4.80;;;12.00;69.40;;;;;;5085501;28;20202;-77
2021/05/28 01:23:33;;;;;;;6.60;5.40;;;11.90;69.30;;;;;;5084881;28;20253;-78
2021/05/28 01:26:00;;;;;;;8.68;5.40;;;12.00;69.40;;;;;;5083802;28;20237;-77
2021/05/28 01:28:26;;;;;;;9.48;5.07;;;12.00;68.50;;;;;;5083464;28;20237;-77
2021/05/28 01:30:52;;;;;;;7.90;5.43;;;12.00;67.90;;;;;;5062583;28;20230;-77
2021/05/28 01:33:19;;;;;;;7.30;5.32;;;12.00;68.40;;;;;;5058942;28;20256;-77
2021/05/28 01:35:45;;;;;;;6.88;5.07;;;12.10;68.00;;;;;;5073218;28;20230;-76
2021/05/28 01:38:12;;;;;;;7.45;4.65;;;12.00;67.40;;;;;;5072877;28;20288;-78
2021/05/28 01:40:39;;;;;;;5.28;4.70;;;12.00;67.50;;;;;;5072501;28;20729;-76
2021/05/28 01:43:05;;;;;;;6.00;5.13;;;12.00;66.50;;;;;;5072826;28;20237;-77
2021/05/28 01:45:32;;;;;;;6.53;3.85;;;12.10;66.60;;;;;;5070941;28;20284;-76
2021/05/28 01:47:58;;;;;;;8.38;5.18;;;12.10;66.30;;;;;;5073444;28;20799;-77
2021/05/28 01:50:24;;;;;;;5.82;4.25;;;12.00;65.00;;;;;;5074832;28;20745;-76
2021/05/28 01:52:51;;;;;;;5.50;4.75;;;12.10;65.80;;;;;;5073756;28;20643;-77
2021/05/28 01:55:17;;;;;;;7.30;4.60;;;12.10;65.00;;;;;;5072827;28;20208;-77
2021/05/28 01:57:45;;;;;;;5.25;4.75;;;12.10;65.10;;;;;;5072924;28;20292;-78
2021/05/28 02:00:14;;;;;;;6.20;5.10;;;12.10;65.90;;;;;;5061765;28;20304;-76
2021/05/28 02:02:41;;;;;;;5.13;4.53;;;12.10;65.70;;;;;;5075185;28;20215;-79
2021/05/28 02:05:09;;;;;;;5.50;5.00;;;12.10;65.20;;;;;;5078081;28;20273;-77
2021/05/28 02:07:36;;;;;;;6.38;4.80;;;11.90;66.30;;;;;;5083331;28;20293;-77
2021/05/28 02:10:03;;;;;;;6.00;5.40;;;11.90;66.80;;;;;;5075701;28;20233;-76
2021/05/28 02:12:29;;;;;;;7.10;5.35;;;11.90;66.10;;;;;;5079300;28;20266;-77
2021/05/28 02:14:58;;;;;;;9.07;5.97;;;11.80;66.90;;;;;;5069422;28;20670;-77
2021/05/28 02:17:25;;;;;;;11.02;5.80;;;11.70;67.50;;;;;;5059084;28;20232;-78
2021/05/28 02:19:54;;;;;;;7.30;5.10;;;11.80;68.20;;;;;;5060762;28;20222;-78
2021/05/28 02:22:21;;;;;;;6.20;5.40;;;11.70;68.40;;;;;;5065952;28;20203;-78
2021/05/28 02:24:47;;;;;;;6.32;5.25;;;11.80;69.00;;;;;;5060987;28;20210;-77
2021/05/28 02:27:13;;;;;;;8.35;5.85;;;11.70;68.70;;;;;;5065912;28;20621;-76
2021/05/28 02:29:40;;;;;;;6.68;5.65;;;11.70;69.10;;;;;;5070014;28;20257;-77
2021/05/28 02:32:07;;;;;;;5.68;4.85;;;11.70;69.10;;;;;;5075029;28;20233;-79
2021/05/28 02:34:34;;;;;;;9.82;5.22;;;11.60;69.70;;;;;;5059098;28;20290;-77
2021/05/28 02:37:00;;;;;;;7.40;5.75;;;11.60;71.50;;;;;;5053111;28;20593;-76
2021/05/28 02:39:27;;;;;;;7.07;6.07;;;11.60;72.20;;;;;;5067045;28;20253;-76
2021/05/28 02:41:53;;;;;;;6.45;5.57;;;11.60;72.30;;;;;;5075358;28;20309;-79
2021/05/28 02:44:19;;;;;;;9.75;6.15;;;11.70;72.90;;;;;;5061843;28;20233;-77
2021/05/28 02:46:48;;;;;;;6.45;5.82;;;11.70;72.70;;;;;;5070956;28;20288;-76
2021/05/28 02:49:15;;;;;;;7.65;5.90;;;11.70;73.00;;;;;;5063700;28;20222;-77
2021/05/28 02:51:41;;;;;;;10.48;6.68;;;11.70;72.90;;;;;;5053406;28;20291;-77
2021/05/28 02:54:08;;;;;;;10.25;7.00;;;11.70;73.50;;;;;;5052533;28;20241;-76
2021/05/28 02:56:34;;;;;;;10.00;7.07;;;11.60;73.50;;;;;;5053196;28;20206;-77
2021/05/28 02:59:01;;;;;;;7.70;7.00;;;11.60;73.40;;;;;;5070481;28;20300;-76
2021/05/28 03:01:27;;;;;;;7.70;6.38;;;11.60;74.10;;;;;;5077708;28;20237;-77
2021/05/28 03:03:53;;;;;;;10.57;7.68;;;11.50;75.10;;;;;;5057812;28;20206;-76
2021/05/28 03:06:21;;;;;;;8.15;6.85;;;11.50;76.10;;;;;;5052237;28;20821;-76
2021/05/28 03:08:47;;;;;;;11.35;7.20;;;11.40;76.40;;;;;;5053385;28;20237;-77
2021/05/28 03:11:14;;;;;;;9.45;8.02;;;11.40;77.50;;;;;;5053380;28;20233;-77
2021/05/28 03:13:40;;;;;;;8.88;7.50;;;11.30;77.50;;;;;;5066391;28;20213;-75
2021/05/28 03:16:07;;;;;;;9.90;7.18;;;11.30;77.50;;;;;;5086069;28;20319;-75
2021/05/28 03:18:45;;;;;;;8.27;7.47;;;11.30;77.50;;;;;;5076278;28;20214;-79
2021/05/28 03:21:20;;;;;;;8.52;7.05;;;11.30;78.50;;;;;;5073080;28;20681;-77
2021/05/28 03:23:48;;;;;;;10.15;6.82;;;11.30;78.90;;;;;;5079497;28;20197;-78
2021/05/28 03:26:14;;;;;;;8.70;6.60;;;11.30;78.30;;;;;;5076141;28;20202;-77
2021/05/28 03:28:41;;;;;;;8.07;6.72;;;11.30;77.50;;;;;;5059693;28;20310;-76
2021/05/28 03:31:07;;;;;;;10.95;7.38;;;11.30;77.50;;;;;;5058390;28;20712;-77
2021/05/28 03:33:34;;;;;;;8.05;6.65;;;11.20;77.60;;;;;;5057655;28;20209;-77
2021/05/28 03:36:00;;;;;;;11.98;7.65;;;11.20;78.30;;;;;;5058059;28;20292;-77
2021/05/28 03:38:27;;;;;;;9.18;6.97;;;11.20;78.30;;;;;;5057690;28;20637;-78
2021/05/28 03:40:54;;;;;;;11.07;7.25;;;11.20;79.20;;;;;;5077457;28;20233;-78
2021/05/28 03:43:20;;;;;;;12.80;7.72;;;11.30;77.50;;;;;;5078093;28;20191;-77
2021/05/28 03:45:47;;;;;;;9.00;7.57;;;11.20;77.40;;;;;;5074874;28;20522;-76
2021/05/28 03:48:13;;;;;;;8.02;7.22;;;11.20;77.40;;;;;;5074903;28;20210;-76
2021/05/28 03:50:39;;;;;;;8.70;7.43;;;11.20;78.60;;;;;;5077478;28;20219;-76
2021/05/28 03:53:06;;;;;;;10.88;7.03;;;11.30;78.50;;;;;;5079867;28;20233;-78
2021/05/28 03:55:32;;;;;;;12.30;7.00;;;11.30;77.50;;;;;;5080326;28;20190;-79
2021/05/28 03:58:00;;;;;;;10.35;7.30;;;11.30;77.50;;;;;;5077524;28;20202;-77
2021/05/28 04:00:26;;;;;;;10.38;7.50;;;11.20;78.30;;;;;;5058129;28;20226;-75
2021/05/28 04:02:53;;;;;;;11.85;8.05;;;11.10;79.50;;;;;;5059196;28;20285;-77
2021/05/28 04:05:19;;;;;;;10.82;7.50;;;11.10;80.60;;;;;;5065228;28;20233;-77
2021/05/28 04:07:46;;;;;;;12.45;8.07;;;11.20;80.70;;;;;;5074450;28;20198;-78
2021/05/28 04:10:13;;;;;;;9.35;6.82;;;11.20;80.60;;;;;;5073726;28;20801;-77
2021/05/28 04:12:39;;;;;;;10.57;8.00;;;11.20;80.30;;;;;;5077038;28;20214;-76
2021/05/28 04:15:08;;;;;;;11.57;8.35;;;11.20;79.80;;;;;;5074137;28;20205;-77
2021/05/28 04:17:34;;;;;;;8.88;7.93;;;11.20;80.30;;;;;;5078633;28;20678;-78
2021/05/28 04:20:01;;;;;;;11.57;8.30;;;11.20;79.90;;;;;;5075355;28;20305;-76
2021/05/28 04:22:27;;;;;;;9.23;7.60;;;11.20;79.70;;;;;;5076544;28;20631;-77
2021/05/28 04:24:54;;;;;;;17.85;8.95;;;11.20;79.60;;;;;;5057817;28;20206;-77
2021/05/28 04:27:20;;;;;;;11.90;8.40;;;11.20;79.20;;;;;;5059790;28;20222;-78
2021/05/28 04:29:47;;;;;;;9.80;8.20;;;11.30;79.70;;;;;;5060640;28;20290;-77
2021/05/28 04:32:14;;;;;;;10.52;7.80;;;11.30;79.50;;;;;;5060555;28;20244;-77
2021/05/28 04:34:40;;;;;;;11.63;7.88;;;11.40;79.70;;;;;;5056847;28;20218;-76
2021/05/28 04:37:07;;;;;;;16.13;8.80;;;11.50;78.90;;;;;;5071911;28;20202;-76
2021/05/28 04:39:34;;;;;;;14.27;7.88;;;11.50;77.60;;;;;;5076140;28;20229;-77
2021/05/28 04:42:00;;;;;;;10.77;8.18;;;11.50;77.60;;;;;;5078762;28;20201;-76
2021/05/28 04:44:27;;;;;;;14.30;9.10;;;11.40;78.10;;;;;;5079099;28;20232;-76
2021/05/28 04:46:54;;;;;;;10.93;8.45;;;11.40;78.70;;;;;;5076592;28;20512;-76
2021/05/28 04:49:22;;;;;;;17.92;10.00;;;11.50;78.20;;;;;;5075620;28;20312;-78
2021/05/28 04:51:49;;;;;;;17.73;9.57;;;11.40;78.60;;;;;;5076831;28;20685;-78
2021/05/28 04:54:30;;;;;;;15.60;10.55;;;11.40;78.70;;;;;;5086098;28;20210;-81
2021/05/28 04:56:57;;;;;;;17.17;9.63;;;11.40;79.60;;;;;;5065029;28;20262;-76
2021/05/28 04:59:23;;;;;;;14.20;9.55;;;11.40;79.80;;;;;;5065059;28;20240;-80
2021/05/28 05:01:50;;;;;;;16.17;10.77;;;11.40;81.00;;;;;;5071260;28;20293;-77
2021/05/28 05:04:16;;;;;;;11.77;9.38;;;11.40;82.20;;;;;;5078041;28;20262;-77
2021/05/28 05:06:43;;;;;;;14.40;10.05;;;11.50;81.70;;;;;;5068980;28;20209;-78
2021/05/28 05:09:10;;;;;;;12.93;9.65;;;11.60;80.50;;;;;;5059374;28;20317;-77
2021/05/28 05:11:36;;;;;;;15.52;10.27;;;11.50;81.40;;;;;;5056902;28;20234;-76
2021/05/28 05:14:03;;;;;;;13.95;10.82;;;11.30;84.90;;;;;;5056144;28;20242;-76
2021/05/28 05:16:29;;;;;;;14.48;10.07;;;11.30;85.90;;;;;;5063838;28;20688;-76
2021/05/28 05:18:55;;;;;;;17.77;11.15;;;11.40;86.00;;;;;;5082219;28;20229;-77
2021/05/28 05:21:22;;;;;;;14.18;11.55;;;11.50;86.00;;;;;;5082103;28;20227;-76
2021/05/28 05:23:49;;;;;;;12.85;10.85;;;11.50;86.00;;;;;;5067589;28;20896;-77
2021/05/28 05:26:16;;;;;;;13.57;10.68;;;11.60;84.90;;;;;;5072406;28;20210;-78
2021/05/28 05:28:42;;;;;;;22.88;11.25;;;11.60;84.70;;;;;;5072400;28;20237;-77
2021/05/28 05:31:09;;;;;;;14.32;10.50;;;11.60;85.50;;;;;;5074724;28;20234;-77
2021/05/28 05:33:35;;;;;;;15.75;10.48;;;11.70;85.50;;;;;;5073435;28;20221;-76
2021/05/28 05:36:02;;;;;;;14.00;10.73;;;11.70;84.40;;;;;;5073439;28;20213;-78
2021/05/28 05:38:28;;;;;;;11.18;9.80;;;11.90;83.00;;;;;;5085376;28;20253;-77
2021/05/28 05:40:56;;;;;;;13.82;10.77;;;12.10;82.00;;;;;;5075133;28;20221;-77
2021/05/28 05:43:22;;;;;;;14.80;10.80;;;12.00;80.70;;;;;;5076014;28;20245;-78
2021/05/28 05:45:48;;;;;;;14.57;11.32;;;11.90;80.40;;;;;;5075689;28;20297;-76
2021/05/28 05:48:16;;;;;;;14.55;10.23;;;12.00;79.30;;;;;;5074500;28;20201;-76
2021/05/28 05:50:42;;;;;;;12.55;10.77;;;12.00;78.10;;;;;;5078583;28;20221;-77
2021/05/28 05:53:08;;;;;;;13.88;10.65;;;11.90;78.00;;;;;;5074227;28;20206;-77
2021/05/28 05:55:35;;;;;;;15.40;10.90;;;12.10;76.60;;;;;;5076514;28;20214;-78
2021/05/28 05:58:02;;;;;;;15.48;8.80;;;12.30;74.00;;;;;;5073197;28;20203;-77
2021/05/28 06:00:29;;;;;;;18.30;8.95;;;12.30;68.50;;;;;;5059053;28;20203;-77
2021/05/28 06:02:55;;;;;;;12.52;9.93;;;12.30;68.60;;;;;;5061154;28;20597;-77
2021/05/28 06:05:21;;;;;;;12.48;8.82;;;12.20;70.30;;;;;;5060429;28;20249;-78
2021/05/28 06:07:48;;;;;;;12.40;9.65;;;12.50;69.90;;;;;;5054123;28;20229;-77
2021/05/28 06:10:15;;;;;;;16.15;9.50;;;12.50;66.00;;;;;;5073432;28;20229;-78
2021/05/28 06:12:42;;;;;;;11.00;8.32;;;12.60;65.50;;;;;;5074434;28;20765;-77
2021/05/28 06:15:09;;;;;;;15.20;9.50;;;12.60;63.70;;;;;;5074871;28;20745;-77
2021/05/28 06:17:36;;;;;;;12.70;8.18;;;12.40;63.20;;;;;;5089724;28;20220;-77
2021/05/28 06:20:03;;;;;;;13.73;9.45;;;12.30;65.90;;;;;;5091951;28;20248;-76
2021/05/28 06:22:31;;;;;;;18.63;10.20;;;12.10;67.00;;;;;;5092013;28;20212;-78
2021/05/28 06:24:57;;;;;;;11.90;8.23;;;12.20;65.50;;;;;;5091618;28;20682;-78
2021/05/28 06:27:24;;;;;;;12.30;8.20;;;12.30;65.20;;;;;;5091125;28;20229;-77
2021/05/28 06:29:50;;;;;;;10.25;8.27;;;12.30;64.70;;;;;;5085704;28;20228;-76
2021/05/28 06:32:17;;;;;;;13.13;8.88;;;12.60;63.90;;;;;;5089328;28;20213;-77
2021/05/28 06:34:44;;;;;;;10.95;8.30;;;12.70;62.00;;;;;;5078165;28;20205;-78
2021/05/28 06:37:10;;;;;;;13.75;9.65;;;12.70;61.10;;;;;;5077760;28;20286;-77
2021/05/28 06:39:37;;;;;;;13.48;9.07;;;12.80;61.20;;;;;;5084684;28;20257;-77
2021/05/28 06:42:04;;;;;;;12.60;9.50;;;12.80;61.20;;;;;;5077778;28;20289;-77
2021/05/28 06:44:30;;;;;;;10.10;8.75;;;12.50;62.90;;;;;;5076651;28;20583;-77
2021/05/28 06:46:56;;;;;;;13.52;8.68;;;12.50;64.00;;;;;;5079975;28;20234;-78
2021/05/28 06:49:24;;;;;;;13.73;8.90;;;13.00;61.40;;;;;;5073661;28;20224;-78
2021/05/28 06:51:51;;;;;;;14.48;9.10;;;13.20;61.60;;;;;;5076026;28;20236;-79
2021/05/28 06:54:17;;;;;;;10.45;8.18;;;13.50;60.30;;;;;;5078099;28;20208;-79
2021/05/28 06:56:44;;;;;;;10.20;8.73;;;13.70;58.80;;;;;;5089966;28;20225;-78
2021/05/28 06:59:11;;;;;;;11.93;8.60;;;13.80;57.10;;;;;;5093796;28;20225;-78
2021/05/28 07:01:38;;;;;;;12.00;8.60;;;13.90;56.90;;;;;;5082944;28;20252;-79
2021/05/28 07:04:05;;;;;;;11.23;8.65;;;14.00;57.30;;;;;;5083327;28;20255;-84
2021/05/28 07:06:32;;;;;;;9.85;8.82;;;14.00;57.70;;;;;;5078341;28;20209;-79
2021/05/28 07:08:59;;;;;;;11.13;8.32;;;13.90;57.60;;;;;;5078178;28;20217;-78
2021/05/28 07:11:25;;;;;;;10.35;8.02;;;14.00;57.70;;;;;;5079123;28;20245;-80
2021/05/28 07:13:52;;;;;;;12.10;8.10;;;14.20;55.80;;;;;;5073453;28;20222;-81
2021/05/28 07:16:19;;;;;;;9.63;8.20;;;14.10;56.30;;;;;;5059309;28;20240;-78
2021/05/28 07:18:45;;;;;;;9.88;7.63;;;14.20;55.70;;;;;;5062551;28;20220;-79
2021/05/28 07:21:12;;;;;;;12.88;8.45;;;14.10;56.30;;;;;;5082431;28;20205;-82
2021/05/28 07:23:39;;;;;;;10.05;9.05;;;14.30;55.60;;;;;;5080553;28;20210;-83
2021/05/28 07:26:05;;;;;;;12.50;7.60;;;14.30;54.60;;;;;;5065377;28;20520;-82
2021/05/28 07:28:32;;;;;;;10.95;8.48;;;14.30;54.40;;;;;;5065079;28;20249;-80
2021/05/28 07:30:59;;;;;;;8.90;7.95;;;14.60;53.50;;;;;;5074108;28;20252;-82
2021/05/28 07:33:26;;;;;;;9.65;6.70;;;14.90;51.60;;;;;;5085953;28;20220;-78
2021/05/28 07:35:52;;;;;;;9.38;7.32;;;14.40;51.10;;;;;;5089109;28;20213;-80
2021/05/28 07:38:19;;;;;;;9.23;6.82;;;14.30;53.20;;;;;;5086330;28;20280;-79
2021/05/28 07:40:46;;;;;;;8.65;7.32;;;14.30;51.80;;;;;;5066670;28;20266;-80
2021/05/28 07:43:13;;;;;;;8.30;6.85;;;14.50;50.70;;;;;;5067344;28;20229;-82
2021/05/28 07:45:39;;;;;;;6.97;6.18;;;14.50;50.10;;;;;;5075812;28;20217;-80
2021/05/28 07:48:06;;;;;;;7.72;6.50;;;14.40;51.50;;;;;;5078671;28;20190;-80
2021/05/28 07:50:45;;;;;;;5.53;5.03;;;14.50;51.20;;;;;;5085762;28;20264;-78
2021/05/28 07:53:12;;;;;;;7.07;4.88;;;14.50;48.30;;;;;;5095373;28;20197;-81
2021/05/28 07:55:38;;;;;;;11.23;5.53;;;14.50;48.20;;;;;;5094032;28;20206;-83
2021/05/28 07:58:06;;;;;;;6.20;5.60;;;14.50;47.50;;;;;;5097322;28;20210;-82
2021/05/28 08:00:33;;;;;;;6.70;5.25;;;14.80;47.20;;;;;;5097409;28;20198;-81
2021/05/28 08:03:01;;;;;;;8.13;4.72;;;15.20;45.60;;;;;;5095412;28;20190;-79
2021/05/28 08:05:27;;;;;;;8.63;5.50;;;15.60;45.50;;;;;;5091833;28;20273;-80
2021/05/28 08:07:55;;;;;;;7.43;5.50;;;15.70;44.80;;;;;;5083038;28;20248;-82
2021/05/28 08:10:21;;;;;;;7.13;6.33;;;15.70;44.80;;;;;;5082155;28;20677;-81
2021/05/28 08:12:48;;;;;;;7.82;5.85;;;15.10;46.60;;;;;;5083449;28;20499;-81
2021/05/28 08:15:16;;;;;;;8.63;7.10;;;15.00;46.80;;;;;;5083758;28;20233;-82
2021/05/28 08:17:42;;;;;;;14.15;6.88;;;14.80;47.20;;;;;;5083411;28;20233;-81
2021/05/28 08:20:10;;;;;;;8.05;5.15;;;14.90;47.80;;;;;;5081298;28;20241;-80
2021/05/28 08:22:36;;;;;;;6.90;5.57;;;15.40;46.50;;;;;;5087653;28;20210;-80
2021/05/28 08:25:04;;;;;;;5.67;5.17;;;15.90;45.00;;;;;;5068003;28;20237;-81
2021/05/28 08:27:30;;;;;;;7.15;6.07;;;15.40;44.50;;;;;;5081694;28;20495;-78
2021/05/28 08:29:57;;;;;;;7.65;6.43;;;15.00;45.20;;;;;;5084591;28;20226;-81
2021/05/28 08:32:24;;;;;;;6.40;5.45;;;15.00;46.90;;;;;;5085830;28;20205;-79
2021/05/28 08:34:51;;;;;;;7.93;5.10;;;15.40;46.90;;;;;;5080816;28;20209;-82
2021/05/28 08:37:17;;;;;;;7.47;5.80;;;15.70;44.20;;;;;;5070333;28;20487;-80
2021/05/28 08:39:43;;;;;;;9.30;6.43;;;15.20;44.90;;;;;;5060097;28;20490;-79
2021/05/28 08:42:13;;;;;;;10.38;5.63;;;15.20;45.50;;;;;;5058647;28;20794;-79
2021/05/28 08:44:42;;;;;;;6.27;5.67;;;15.60;44.70;;;;;;5057669;28;20237;-79
2021/05/28 08:47:12;;;;;;;10.57;6.07;;;15.80;44.90;;;;;;5068323;28;20456;-78
2021/05/28 08:49:40;;;;;;;6.30;5.70;;;15.60;44.70;;;;;;5090990;28;20447;-81
2021/05/28 08:52:06;;;;;;;7.60;4.97;;;15.30;45.90;;;;;;5097004;28;20428;-84
2021/05/28 08:54:32;;;;;;;6.72;5.47;;;14.90;46.60;;;;;;5087653;28;20289;-82
2021/05/28 08:56:59;;;;;;;9.35;5.20;;;15.40;44.50;;;;;;5073340;28;20718;-80
2021/05/28 08:59:25;;;;;;;5.47;4.97;;;15.10;44.30;;;;;;5083693;28;20218;-86
2021/05/28 09:01:53;;;;;;;6.00;5.07;;;15.20;44.40;;;;;;5077268;28;20198;-86
2021/05/28 09:04:21;;;;;;;8.75;5.53;;;15.40;44.50;;;;;;5080961;28;20274;-87
2021/05/28 09:06:49;;;;;;;8.80;6.13;;;15.20;44.40;;;;;;5097250;28;20181;-82
2021/05/28 09:09:17;;;;;;;5.93;5.32;;;15.50;43.60;;;;;;5088118;28;20256;-81
2021/05/28 09:11:51;;;;;;;5.27;4.70;;;15.60;43.60;;;;;;5061670;28;20393;-79
2021/05/28 09:14:33;;;;;;;4.73;4.33;;;16.10;41.90;;;;;;5055446;28;21042;-80
2021/05/28 09:17:00;;;;;;;4.97;4.50;;;16.70;38.30;;;;;;5059859;28;20469;-82
2021/05/28 09:19:26;;;;;;;6.80;4.47;;;16.70;38.80;;;;;;5076342;28;20481;-83
2021/05/28 09:21:58;;;;;;;4.20;3.90;;;16.30;39.70;;;;;;5082133;28;20444;-82
2021/05/28 09:24:31;;;;;;;6.13;4.65;;;16.10;40.60;;;;;;5062819;28;20434;-83
2021/05/28 09:27:17;;;;;;;7.67;4.60;;;16.50;39.10;;;;;;5064818;28;20214;-82
2021/05/28 09:29:59;;;;;;;4.67;4.27;;;16.70;37.50;;;;;;5083343;28;20503;-82
2021/05/28 09:32:27;;;;;;;5.10;4.60;;;17.10;38.10;;;;;;5079848;28;20469;-82
2021/05/28 09:34:53;;;;;;;5.00;4.60;;;17.20;38.30;;;;;;5066470;28;20532;-84
2021/05/28 09:37:20;;;;;;;9.00;5.40;;;17.00;37.50;;;;;;5071104;28;20504;-82
2021/05/28 09:39:48;;;;;;;6.50;4.57;;;16.90;39.40;;;;;;5087408;28;20475;-84
2021/05/28 09:42:14;;;;;;;6.10;5.50;;;16.90;37.90;;;;;;5086923;28;20412;-83
2021/05/28 09:44:41;;;;;;;5.47;4.93;;;17.20;36.20;;;;;;5073932;28;20451;-84
2021/05/28 09:47:12;;;;;;;8.27;4.77;;;17.50;36.50;;;;;;5076699;28;20452;-84
2021/05/28 09:49:41;;;;;;;10.43;6.10;;;17.10;37.80;;;;;;5072348;28;20495;-85
2021/05/28 09:52:12;;;;;;;5.10;4.60;;;16.40;39.50;;;;;;5066980;28;20453;-84
2021/05/28 09:54:41;;;;;;;4.80;4.30;;;15.90;40.40;;;;;;5085038;28;20448;-83
2021/05/28 09:57:27;;;;;;;3.90;3.40;;;16.10;39.30;;;;;;5084406;28;20466;-84
2021/05/28 09:59:53;;;;;;;4.83;4.43;;;16.50;37.00;;;;;;5067742;28;20515;-82
2021/05/28 10:02:33;;;;;;;6.97;4.70;;;17.10;37.40;;;;;;5072621;28;20436;-83
2021/05/28 10:05:00;;;;;;;6.80;4.70;;;16.90;38.40;;;;;;5067326;28;20449;-82
2021/05/28 10:07:29;;;;;;;5.23;4.70;;;16.10;40.00;;;;;;5068293;28;20462;-83
2021/05/28 10:09:57;;;;;;;5.27;4.10;;;16.00;40.10;;;;;;5086905;28;20509;-85
2021/05/28 10:12:24;;;;;;;3.60;3.30;;;16.00;38.70;;;;;;5092430;28;20449;-83
2021/05/28 10:14:52;;;;;;;4.90;3.57;;;15.90;35.90;;;;;;5069057;28;20781;-84
2021/05/28 10:17:19;;;;;;;4.73;3.80;;;16.30;36.60;;;;;;5066819;28;20503;-84
2021/05/28 10:19:46;;;;;;;4.23;3.40;;;16.80;35.80;;;;;;5087900;28;20519;-83
2021/05/28 10:22:13;;;;;;;4.73;4.20;;;17.40;36.40;;;;;;5086418;28;20475;-83
2021/05/28 10:24:40;;;;;;;4.93;3.90;;;17.30;36.30;;;;;;5070145;28;20460;-81
2021/05/28 10:27:08;;;;;;;7.13;3.93;;;17.70;34.80;;;;;;5074846;28;20441;-84
2021/05/28 10:29:34;;;;;;;4.90;3.63;;;17.70;35.10;;;;;;5076594;28;20458;-81
2021/05/28 10:32:02;;;;;;;4.73;4.07;;;17.30;36.30;;;;;;5070738;28;20491;-81
2021/05/28 10:34:29;;;;;;;4.20;3.47;;;17.80;34.20;;;;;;5060346;28;20449;-80
2021/05/28 10:36:58;;;;;;;4.23;3.80;;;17.70;33.20;;;;;;5068223;28;20471;-79
2021/05/28 10:39:25;;;;;;;4.90;3.67;;;18.00;33.80;;;;;;5080449;28;20482;-81
2021/05/28 10:41:55;;;;;;;4.57;3.70;;;18.00;34.00;;;;;;5067277;28;20548;-82
2021/05/28 10:44:25;;;;;;;4.07;3.43;;;17.40;35.10;;;;;;5085672;28;20456;-79
2021/05/28 10:46:58;;;;;;;6.77;3.83;;;17.00;36.00;;;;;;5071550;28;20438;-80
2021/05/28 10:49:42;;;;;;;4.33;3.87;;;17.00;34.20;;;;;;5088448;28;20899;-81
2021/05/28 10:52:15;;;;;;;3.70;3.40;;;16.80;34.00;;;;;;5086452;28;20444;-82
2021/05/28 10:54:44;;;;;;;3.37;3.10;;;16.90;35.90;;;;;;5078075;28;20449;-84
2021/05/28 10:57:24;;;;;;;3.93;3.00;;;17.00;35.40;;;;;;5064822;28;20408;-82
2021/05/28 10:59:53;;;;;;;8.80;3.23;;;17.00;35.70;;;;;;5063389;28;20503;-81
2021/05/28 11:03:01;;;;;;;3.30;3.00;;;16.90;33.60;;;;;;5066999;28;20456;-82
2021/05/28 11:06:01;;;;;;;3.37;3.10;;;16.80;32.90;;;;;;5083570;28;20452;-82
2021/05/28 11:08:48;;;;;;;3.40;3.03;;;17.00;34.00;;;;;;5082531;28;20468;-84
2021/05/28 11:11:56;;;;;;;5.27;2.87;;;17.70;33.20;;;;;;5083303;28;20486;-87
2021/05/28 11:14:23;;;;;;;3.60;3.30;;;17.90;31.60;;;;;;5087585;28;20458;-83
2021/05/28 11:17:16;;;;;;;4.40;3.00;;;18.00;33.30;;;;;;5082058;28;20505;-82
2021/05/28 11:19:55;;;;;;;3.77;2.90;;;17.50;34.50;;;;;;5048109;28;20536;-82
2021/05/28 11:22:35;;;;;;;3.03;2.83;;;17.60;33.80;;;;;;5070258;28;20475;-82
2021/05/28 11:25:04;;;;;;;3.83;2.87;;;17.60;32.40;;;;;;5089580;28;20429;-83
2021/05/28 11:28:09;;;;;;;2.87;2.30;;;17.80;31.30;;;;;;5128616;22;20500;-84
2021/05/28 11:30:46;;;;;;;2.73;2.03;;;18.00;29.10;;;;;;5049441;28;20490;-81
2021/05/28 11:33:36;;;;;;;2.57;2.37;;;18.20;29.70;;;;;;5055545;28;20464;-82
2021/05/28 11:36:46;;;;;;;2.83;2.60;;;17.90;30.50;;;;;;5130346;22;20486;-81
2021/05/28 11:39:21;;;;;;;2.20;2.00;;;18.90;28.80;;;;;;5087170;28;20994;-81
2021/05/28 11:41:50;;;;;;;2.80;2.33;;;19.00;28.80;;;;;;5091429;28;20460;-82
2021/05/28 11:44:18;;;;;;;3.20;2.90;;;19.50;27.80;;;;;;5082465;28;20477;-80
2021/05/28 11:46:47;;;;;;;4.53;2.40;;;19.50;28.50;;;;;;5077553;28;20964;-82
2021/05/28 11:49:16;;;;;;;2.67;2.47;;;18.70;29.10;;;;;;5078350;28;20465;-82
2021/05/28 11:51:43;;;;;;;2.60;2.40;;;18.30;30.20;;;;;;5096277;28;20514;-84
2021/05/28 11:54:21;;;;;;;2.43;2.23;;;18.30;30.00;;;;;;5089303;28;20456;-82
2021/05/28 11:56:53;;;;;;;2.37;2.17;;;18.30;29.60;;;;;;5071324;28;20449;-82
2021/05/28 11:59:19;;;;;;;3.20;1.83;;;18.30;29.00;;;;;;5077479;28;20450;-82
2021/05/28 12:01:46;;;;;;;2.30;2.10;;;18.50;28.00;;;;;;5097559;28;20436;-83
2021/05/28 12:04:17;;;;;;;2.57;2.37;;;18.90;28.70;;;;;;5097423;27;20460;-83
2021/05/28 12:06:44;;;;;;;2.30;2.10;;;18.60;27.90;;;;;;5087465;28;20484;-82
2021/05/28 12:09:10;;;;;;;2.70;2.43;;;19.10;27.90;;;;;;5097147;28;20459;-81
2021/05/28 12:11:37;;;;;;;2.90;2.50;;;19.50;27.80;;;;;;5100513;28;20469;-79
2021/05/28 12:14:04;;;;;;;2.60;2.40;;;19.40;28.50;;;;;;5081139;28;20814;-80
2021/05/28 12:16:30;;;;;;;3.07;2.60;;;19.50;28.60;;;;;;5077857;28;20463;-83
2021/05/28 12:18:56;;;;;;;2.30;2.10;;;18.60;29.80;;;;;;5086099;28;21007;-82
2021/05/28 12:21:26;;;;;;;3.43;2.00;;;18.60;29.10;;;;;;5095350;28;20453;-83
2021/05/28 12:23:54;;;;;;;4.10;2.37;;;18.50;29.50;;;;;;5095573;28;20935;-85
2021/05/28 12:26:22;;;;;;;3.43;2.20;;;18.30;29.20;;;;;;5094241;28;20467;-86
2021/05/28 12:28:52;;;;;;;2.03;1.93;;;18.20;29.30;;;;;;5089122;28;20472;-81
2021/05/28 12:31:20;;;;;;;4.63;2.40;;;18.60;28.70;;;;;;5083844;28;20488;-79
2021/05/28 12:33:52;;;;;;;2.17;2.07;;;18.60;28.50;;;;;;5078053;28;20414;-80
2021/05/28 12:36:24;;;;;;;1.93;1.73;;;18.60;27.90;;;;;;5077653;28;20451;-80
2021/05/28 12:38:53;;;;;;;2.53;1.83;;;18.40;27.80;;;;;;5077424;28;20477;-82
2021/05/28 12:41:20;;;;;;;2.30;2.10;;;18.30;28.40;;;;;;5077652;28;20419;-80
2021/05/28 12:43:48;;;;;;;2.13;1.93;;;18.00;28.30;;;;;;5076605;28;20494;-82
2021/05/28 12:46:19;;;;;;;2.93;1.93;;;17.70;28.60;;;;;;5076912;28;20430;-79
2021/05/28 12:48:54;;;;;;;1.90;1.80;;;18.50;27.90;;;;;;5078876;28;20480;-79